createdAt,value
2023-05-21T00:02:17.669Z,69.30
2023-05-21T00:04:45.526Z,69.70
2023-05-21T00:07:13.115Z,70.10
2023-05-21T00:09:40.085Z,70.90
2023-05-21T00:12:08.210Z,71.70
2023-05-21T00:14:35.038Z,72.10
2023-05-21T00:17:02.060Z,72.60
2023-05-21T00:19:28.988Z,73.30
2023-05-21T00:21:56.099Z,74.10
2023-05-21T00:24:23.115Z,74.80
2023-05-21T00:26:50.098Z,75.20
2023-05-21T00:29:17.003Z,75.90
2023-05-21T00:31:44.247Z,76.60
2023-05-21T00:34:11.241Z,77.50
2023-05-21T00:36:38.109Z,78.10
2023-05-21T00:39:05.781Z,79.10
2023-05-21T00:41:35.280Z,80.10
2023-05-21T00:44:03.376Z,81.20
2023-05-21T00:46:30.621Z,81.80
2023-05-21T00:48:58.462Z,82.50
2023-05-21T00:51:26.036Z,83.20
2023-05-21T00:53:53.283Z,84.40
2023-05-21T00:56:22.995Z,85.50
2023-05-21T00:58:55.584Z,86.80
2023-05-21T01:01:25.875Z,86.90
2023-05-21T01:03:57.804Z,87.40
2023-05-21T01:06:25.272Z,88.00
2023-05-21T01:08:52.261Z,89.20
2023-05-21T01:11:22.046Z,89.90
2023-05-21T01:13:50.154Z,90.30
2023-05-21T01:16:17.896Z,90.70
2023-05-21T01:18:45.327Z,90.70
2023-05-21T01:21:13.854Z,91.00
2023-05-21T01:23:40.664Z,90.20
2023-05-21T01:26:08.529Z,90.70
2023-05-21T01:28:35.507Z,90.80
2023-05-21T01:31:26.385Z,90.60
2023-05-21T01:33:56.325Z,90.90
2023-05-21T01:36:32.910Z,89.30
2023-05-21T01:39:09.906Z,90.40
2023-05-21T01:41:42.143Z,90.40
2023-05-21T01:44:10.019Z,90.70
2023-05-21T01:46:38.589Z,91.10
2023-05-21T01:49:06.531Z,91.10
2023-05-21T01:51:34.381Z,91.20
2023-05-21T01:54:01.955Z,91.20
2023-05-21T01:56:28.818Z,91.50
2023-05-21T01:59:00.341Z,91.60
2023-05-21T02:01:30.584Z,91.70
2023-05-21T02:03:58.184Z,92.00
2023-05-21T02:06:25.494Z,92.20
2023-05-21T02:08:52.465Z,92.40
2023-05-21T02:11:19.638Z,92.40
2023-05-21T02:13:46.633Z,92.60
2023-05-21T02:16:15.940Z,92.90
2023-05-21T02:18:46.453Z,92.40
2023-05-21T02:21:13.408Z,92.40
2023-05-21T02:23:42.607Z,92.60
2023-05-21T02:26:09.538Z,92.50
2023-05-21T02:28:36.573Z,92.70
2023-05-21T02:31:04.026Z,92.70
2023-05-21T02:33:30.912Z,92.90
2023-05-21T02:35:58.151Z,93.00
2023-05-21T02:38:25.975Z,93.70
2023-05-21T02:40:53.186Z,93.20
2023-05-21T02:43:20.276Z,93.40
2023-05-21T02:45:47.656Z,93.70
2023-05-21T02:48:14.968Z,93.80
2023-05-21T02:50:42.437Z,94.00
2023-05-21T02:53:09.490Z,93.90
2023-05-21T02:55:37.050Z,94.10
2023-05-21T02:58:04.657Z,94.30
2023-05-21T03:00:31.642Z,94.10
2023-05-21T03:03:00.474Z,94.40
2023-05-21T03:05:27.516Z,94.00
2023-05-21T03:07:54.507Z,93.90
2023-05-21T03:10:21.380Z,93.80
2023-05-21T03:12:50.112Z,94.20
2023-05-21T03:15:17.059Z,93.60
2023-05-21T03:17:44.493Z,94.30
2023-05-21T03:20:16.565Z,94.60
2023-05-21T03:22:44.702Z,94.80
2023-05-21T03:25:12.896Z,95.10
2023-05-21T03:27:40.225Z,95.30
2023-05-21T03:30:17.423Z,95.40
2023-05-21T03:33:03.629Z,95.90
2023-05-21T03:35:30.781Z,96.00
2023-05-21T03:37:57.727Z,95.50
2023-05-21T03:40:24.808Z,95.80
2023-05-21T03:42:51.978Z,95.80
2023-05-21T03:45:19.416Z,96.00
2023-05-21T03:48:02.183Z,95.80
2023-05-21T03:50:29.737Z,96.00
2023-05-21T03:52:56.609Z,95.90
2023-05-21T03:55:23.782Z,96.00
2023-05-21T03:57:50.750Z,96.00
2023-05-21T04:00:18.100Z,96.00
2023-05-21T04:02:48.858Z,96.10
2023-05-21T04:05:17.662Z,95.40
2023-05-21T04:07:46.485Z,94.70
2023-05-21T04:10:14.060Z,94.20
2023-05-21T04:12:41.143Z,93.20
2023-05-21T04:15:08.574Z,92.10
2023-05-21T04:17:35.899Z,90.90
2023-05-21T04:20:03.828Z,90.10
2023-05-21T04:22:31.077Z,88.70
2023-05-21T04:24:59.710Z,87.80
2023-05-21T04:27:32.873Z,86.90
2023-05-21T04:29:59.880Z,85.60
2023-05-21T04:32:28.669Z,83.40
2023-05-21T04:34:55.653Z,82.20
2023-05-21T04:37:24.690Z,80.20
2023-05-21T04:39:51.566Z,77.90
2023-05-21T04:42:19.480Z,76.60
2023-05-21T04:44:46.376Z,75.70
2023-05-21T04:47:14.964Z,74.60
2023-05-21T04:49:42.048Z,73.30
2023-05-21T04:52:08.994Z,72.70
2023-05-21T04:54:36.676Z,71.90
2023-05-21T04:57:03.603Z,72.20
2023-05-21T04:59:30.707Z,73.00
2023-05-21T05:01:57.885Z,71.30
2023-05-21T05:04:24.733Z,71.00
2023-05-21T05:06:52.444Z,70.60
2023-05-21T05:09:21.637Z,71.00
2023-05-21T05:11:48.629Z,71.50
2023-05-21T05:14:16.010Z,70.50
2023-05-21T05:16:44.047Z,70.20
2023-05-21T05:19:11.219Z,69.20
2023-05-21T05:21:38.140Z,69.20
2023-05-21T05:24:05.441Z,69.80
2023-05-21T05:26:32.503Z,67.20
2023-05-21T05:29:00.137Z,67.10
2023-05-21T05:31:27.260Z,66.90
2023-05-21T05:33:54.193Z,66.70
2023-05-21T05:36:23.588Z,66.60
2023-05-21T05:38:50.605Z,66.60
2023-05-21T05:41:17.917Z,66.60
2023-05-21T05:43:44.983Z,65.90
2023-05-21T05:46:11.985Z,64.90
2023-05-21T05:48:39.431Z,64.40
2023-05-21T05:51:06.537Z,64.60
2023-05-21T05:53:33.485Z,64.60
2023-05-21T05:56:00.485Z,63.50
2023-05-21T05:58:29.640Z,63.20
2023-05-21T06:01:08.968Z,62.60
2023-05-21T06:03:36.163Z,62.80
2023-05-21T06:06:11.681Z,62.10
2023-05-21T06:08:40.632Z,60.30
2023-05-21T06:11:07.605Z,60.60
2023-05-21T06:13:34.606Z,60.90
2023-05-21T06:16:03.942Z,61.30
2023-05-21T06:18:30.884Z,60.00
2023-05-21T06:20:57.975Z,59.60
2023-05-21T06:23:25.097Z,59.50
2023-05-21T06:25:52.592Z,59.80
2023-05-21T06:28:20.136Z,59.00
2023-05-21T06:30:48.647Z,58.90
2023-05-21T06:33:16.280Z,58.20
2023-05-21T06:35:43.601Z,57.80
2023-05-21T06:38:11.404Z,57.10
2023-05-21T06:40:38.385Z,57.10
2023-05-21T06:43:05.830Z,56.40
2023-05-21T06:45:51.603Z,56.90
2023-05-21T06:48:27.991Z,57.30
2023-05-21T06:50:54.942Z,57.20
2023-05-21T06:53:22.143Z,57.30
2023-05-21T06:55:53.555Z,57.80
2023-05-21T06:58:32.509Z,57.30
2023-05-21T07:01:00.992Z,57.10
2023-05-21T07:03:28.043Z,56.70
2023-05-21T07:05:55.372Z,56.60
2023-05-21T07:08:22.363Z,56.90
2023-05-21T07:10:49.718Z,55.90
2023-05-21T07:13:17.817Z,55.70
2023-05-21T07:15:44.976Z,55.50
2023-05-21T07:18:12.197Z,54.70
2023-05-21T07:20:40.067Z,54.30
2023-05-21T07:23:10.673Z,53.90
2023-05-21T07:25:37.918Z,54.00
2023-05-21T07:28:06.639Z,54.00
2023-05-21T07:30:34.043Z,54.10
2023-05-21T07:33:02.572Z,52.80
2023-05-21T07:35:29.709Z,53.60
2023-05-21T07:37:56.855Z,52.60
2023-05-21T07:40:24.271Z,53.20
2023-05-21T07:42:52.184Z,52.30
2023-05-21T07:45:20.559Z,51.90
2023-05-21T07:47:47.541Z,51.60
2023-05-21T07:50:15.149Z,51.80
2023-05-21T07:52:42.179Z,51.30
2023-05-21T07:55:10.189Z,50.40
2023-05-21T07:57:39.238Z,50.60
2023-05-21T08:00:15.504Z,50.40
2023-05-21T08:02:42.578Z,50.30
2023-05-21T08:05:13.124Z,50.20
2023-05-21T08:07:40.230Z,50.30
2023-05-21T08:10:09.142Z,50.20
2023-05-21T08:12:36.182Z,50.30
2023-05-21T08:15:03.752Z,51.00
2023-05-21T08:17:32.335Z,49.80
2023-05-21T08:20:00.532Z,50.40
2023-05-21T08:22:31.052Z,49.70
2023-05-21T08:24:58.177Z,49.20
2023-05-21T08:27:25.234Z,49.70
2023-05-21T08:29:52.511Z,50.40
2023-05-21T08:32:19.583Z,49.30
2023-05-21T08:34:46.576Z,48.50
2023-05-21T08:37:27.692Z,48.70
2023-05-21T08:40:01.857Z,47.90
2023-05-21T08:42:46.780Z,48.00
2023-05-21T08:45:28.144Z,48.30
2023-05-21T08:47:59.407Z,47.90
2023-05-21T08:50:32.465Z,47.50
2023-05-21T08:53:07.527Z,47.30
2023-05-21T08:55:43.889Z,46.00
2023-05-21T08:58:11.216Z,45.40
2023-05-21T09:00:38.307Z,45.40
2023-05-21T09:03:11.540Z,44.50
2023-05-21T09:05:44.094Z,44.80
2023-05-21T09:08:18.976Z,47.90
2023-05-21T09:10:56.262Z,44.20
2023-05-21T09:13:29.153Z,43.50
2023-05-21T09:15:56.215Z,44.00
2023-05-21T09:18:24.414Z,44.30
2023-05-21T09:21:26.614Z,46.00
2023-05-21T09:23:58.308Z,43.50
2023-05-21T09:26:26.689Z,41.80
2023-05-21T09:28:59.660Z,41.80
2023-05-21T09:31:27.441Z,44.00
2023-05-21T09:33:55.692Z,41.70
2023-05-21T09:36:24.830Z,40.30
2023-05-21T09:38:52.464Z,41.00
2023-05-21T09:41:22.145Z,41.80
2023-05-21T09:43:49.648Z,40.60
2023-05-21T09:46:25.823Z,40.40
2023-05-21T09:48:52.861Z,39.60
2023-05-21T09:51:21.328Z,38.60
2023-05-21T09:53:57.830Z,39.20
2023-05-21T09:56:27.558Z,40.10
2023-05-21T09:58:56.936Z,38.60
2023-05-21T10:01:24.781Z,39.70
2023-05-21T10:03:56.616Z,39.30
2023-05-21T10:06:31.335Z,40.90
2023-05-21T10:09:04.703Z,41.20
2023-05-21T10:11:33.739Z,40.60
2023-05-21T10:14:07.510Z,40.90
2023-05-21T10:16:35.985Z,40.20
2023-05-21T10:19:04.850Z,38.80
2023-05-21T10:21:33.562Z,39.90
2023-05-21T10:24:03.064Z,39.00
2023-05-21T10:26:30.764Z,39.90
2023-05-21T10:29:00.274Z,38.70
2023-05-21T10:31:28.702Z,36.70
2023-05-21T10:33:56.217Z,37.50
2023-05-21T10:36:25.994Z,36.80
2023-05-21T10:38:54.148Z,37.30
2023-05-21T10:41:22.651Z,38.80
2023-05-21T10:43:54.816Z,41.40
2023-05-21T10:46:24.597Z,38.70
2023-05-21T10:49:18.352Z,36.70
2023-05-21T10:51:54.290Z,38.10
2023-05-21T10:54:58.938Z,36.60
2023-05-21T10:57:37.892Z,37.00
2023-05-21T11:00:06.492Z,39.50
2023-05-21T11:02:33.604Z,39.70
2023-05-21T11:05:01.428Z,38.70
2023-05-21T11:07:52.542Z,38.60
2023-05-21T11:10:40.612Z,37.50
2023-05-21T11:13:16.368Z,37.50
2023-05-21T11:15:58.811Z,36.10
2023-05-21T11:18:38.521Z,39.10
2023-05-21T11:21:07.741Z,38.20
2023-05-21T11:23:54.080Z,36.40
2023-05-21T11:26:23.648Z,36.30
2023-05-21T11:29:06.529Z,37.30
2023-05-21T11:31:43.187Z,38.80
2023-05-21T11:34:19.426Z,38.50
2023-05-21T11:36:48.500Z,39.20
2023-05-21T11:39:22.328Z,40.00
2023-05-21T11:41:52.787Z,40.00
2023-05-21T11:44:38.083Z,40.10
2023-05-21T11:47:05.874Z,40.60
2023-05-21T11:49:33.189Z,38.00
2023-05-21T11:52:01.451Z,37.70
2023-05-21T11:54:37.555Z,38.00
2023-05-21T11:57:08.493Z,39.70
2023-05-21T11:59:36.614Z,37.70
2023-05-21T12:02:04.960Z,38.70
2023-05-21T12:04:39.333Z,39.20
2023-05-21T12:07:07.589Z,38.10
2023-05-21T12:09:47.348Z,38.00
2023-05-21T12:12:19.150Z,38.30
2023-05-21T12:14:48.141Z,37.90
2023-05-21T12:17:19.372Z,36.80
2023-05-21T12:19:47.272Z,37.60
2023-05-21T12:22:16.478Z,39.40
2023-05-21T12:24:44.132Z,38.40
2023-05-21T12:27:13.461Z,38.00
2023-05-21T12:29:45.364Z,38.20
2023-05-21T12:32:16.630Z,38.50
2023-05-21T12:34:48.666Z,37.20
2023-05-21T12:37:16.967Z,37.10
2023-05-21T12:39:45.753Z,36.40
2023-05-21T12:42:13.436Z,36.60
2023-05-21T12:44:45.471Z,37.40
2023-05-21T12:47:12.858Z,36.70
2023-05-21T12:49:48.173Z,37.70
2023-05-21T12:52:19.011Z,37.10
2023-05-21T12:54:51.804Z,38.00
2023-05-21T12:57:25.307Z,36.50
2023-05-21T12:59:59.062Z,36.80
2023-05-21T13:02:28.279Z,35.90
2023-05-21T13:04:57.429Z,35.40
2023-05-21T13:07:26.455Z,36.20
2023-05-21T13:09:54.359Z,36.90
2023-05-21T13:12:26.613Z,37.10
2023-05-21T13:14:55.381Z,37.10
2023-05-21T13:17:23.102Z,37.60
2023-05-21T13:20:15.536Z,36.60
2023-05-21T13:22:47.919Z,36.60
2023-05-21T13:25:17.276Z,36.90
2023-05-21T13:27:44.523Z,37.50
2023-05-21T13:30:11.856Z,38.40
2023-05-21T13:32:40.436Z,37.60
2023-05-21T13:35:07.765Z,37.80
2023-05-21T13:37:38.549Z,37.70
2023-05-21T13:40:07.709Z,39.40
2023-05-21T13:42:35.807Z,38.00
2023-05-21T13:45:02.783Z,37.80
2023-05-21T13:47:29.786Z,39.20
2023-05-21T13:49:56.702Z,38.90
2023-05-21T13:52:23.654Z,36.20
2023-05-21T13:54:50.885Z,37.30
2023-05-21T13:57:17.806Z,37.00
2023-05-21T13:59:44.787Z,37.00
2023-05-21T14:02:11.891Z,36.90
2023-05-21T14:04:39.557Z,37.30
2023-05-21T14:07:07.042Z,36.90
2023-05-21T14:09:34.604Z,36.20
2023-05-21T14:12:01.702Z,35.80
2023-05-21T14:14:28.765Z,35.40
2023-05-21T14:16:55.807Z,36.20
2023-05-21T14:19:23.134Z,36.00
2023-05-21T14:21:52.574Z,35.30
2023-05-21T14:24:20.049Z,35.70
2023-05-21T14:26:46.997Z,36.10
2023-05-21T14:29:21.551Z,35.50
2023-05-21T14:31:48.820Z,35.90
2023-05-21T14:34:15.874Z,35.40
2023-05-21T14:36:42.807Z,34.20
2023-05-21T14:39:09.722Z,35.00
2023-05-21T14:41:39.409Z,34.60
2023-05-21T14:44:06.719Z,34.60
2023-05-21T14:46:34.159Z,34.40
2023-05-21T14:49:01.300Z,35.30
2023-05-21T14:51:28.251Z,35.60
2023-05-21T14:53:57.711Z,36.40
2023-05-21T14:56:27.356Z,36.50
2023-05-21T14:58:54.904Z,36.00
2023-05-21T15:01:21.863Z,37.00
2023-05-21T15:03:51.523Z,36.60
2023-05-21T15:06:18.632Z,35.70
2023-05-21T15:08:46.103Z,35.90
2023-05-21T15:11:12.948Z,36.80
2023-05-21T15:13:40.328Z,36.40
2023-05-21T15:16:07.367Z,36.60
2023-05-21T15:18:34.544Z,34.90
2023-05-21T15:21:01.568Z,37.80
2023-05-21T15:23:28.645Z,36.00
2023-05-21T15:25:55.721Z,37.00
2023-05-21T15:28:23.317Z,35.50
2023-05-21T15:30:50.503Z,35.60
2023-05-21T15:33:17.641Z,35.70
2023-05-21T15:35:45.971Z,34.80
2023-05-21T15:38:12.962Z,35.90
2023-05-21T15:40:42.024Z,36.70
2023-05-21T15:43:09.335Z,37.10
2023-05-21T15:45:38.430Z,37.00
2023-05-21T15:48:06.192Z,36.80
2023-05-21T15:50:35.705Z,37.10
2023-05-21T15:53:04.293Z,36.80
2023-05-21T15:55:34.408Z,37.30
2023-05-21T15:58:03.142Z,38.80
2023-05-21T16:00:30.020Z,38.00
2023-05-21T16:02:56.997Z,38.80
2023-05-21T16:05:24.103Z,39.40
2023-05-21T16:07:51.557Z,38.10
2023-05-21T16:10:18.884Z,38.90
2023-05-21T16:12:45.915Z,38.60
2023-05-21T16:15:12.893Z,37.70
2023-05-21T16:17:39.829Z,38.10
2023-05-21T16:20:08.570Z,37.00
2023-05-21T16:22:35.534Z,38.40
2023-05-21T16:25:03.014Z,39.00
2023-05-21T16:27:30.180Z,36.90
2023-05-21T16:29:57.113Z,37.00
2023-05-21T16:32:24.218Z,36.40
2023-05-21T16:34:51.437Z,38.10
2023-05-21T16:37:18.561Z,37.70
2023-05-21T16:39:45.983Z,36.10
2023-05-21T16:42:12.908Z,37.00
2023-05-21T16:44:40.158Z,35.70
2023-05-21T16:47:07.096Z,35.90
2023-05-21T16:49:34.133Z,37.10
2023-05-21T16:52:01.664Z,38.60
2023-05-21T16:54:28.578Z,39.10
2023-05-21T16:56:55.959Z,37.30
2023-05-21T16:59:23.047Z,37.40
2023-05-21T17:01:50.025Z,37.40
2023-05-21T17:04:17.140Z,36.50
2023-05-21T17:06:44.059Z,36.30
2023-05-21T17:09:11.492Z,38.10
2023-05-21T17:11:38.575Z,38.10
2023-05-21T17:14:06.925Z,37.50
2023-05-21T17:16:33.831Z,37.10
2023-05-21T17:19:00.884Z,37.50
2023-05-21T17:21:27.874Z,38.30
2023-05-21T17:23:54.771Z,38.70
2023-05-21T17:26:22.457Z,37.70
2023-05-21T17:28:49.409Z,37.60
2023-05-21T17:31:16.442Z,39.10
2023-05-21T17:33:43.528Z,38.90
2023-05-21T17:36:10.737Z,38.80
2023-05-21T17:38:37.586Z,38.70
2023-05-21T17:41:04.772Z,39.70
2023-05-21T17:43:32.080Z,39.90
2023-05-21T17:45:59.073Z,40.10
2023-05-21T17:48:26.559Z,39.70
2023-05-21T17:50:53.647Z,40.10
2023-05-21T17:53:20.690Z,40.30
2023-05-21T17:55:47.611Z,40.70
2023-05-21T17:58:14.610Z,40.50
2023-05-21T18:00:41.614Z,40.70
2023-05-21T18:03:08.727Z,42.10
2023-05-21T18:05:36.546Z,41.80
2023-05-21T18:08:04.965Z,41.90
2023-05-21T18:10:31.899Z,41.20
2023-05-21T18:12:58.757Z,41.50
2023-05-21T18:15:25.655Z,41.00
2023-05-21T18:17:52.764Z,41.30
2023-05-21T18:20:19.956Z,41.60
2023-05-21T18:22:46.833Z,41.50
2023-05-21T18:25:13.723Z,41.10
2023-05-21T18:27:40.810Z,41.80
2023-05-21T18:30:08.527Z,41.50
2023-05-21T18:32:38.621Z,41.90
2023-05-21T18:35:14.327Z,42.10
2023-05-21T18:37:44.603Z,42.50
2023-05-21T18:40:12.587Z,42.40
2023-05-21T18:42:39.499Z,42.50
2023-05-21T18:45:14.144Z,42.60
2023-05-21T18:47:42.995Z,42.80
2023-05-21T18:50:12.991Z,43.00
2023-05-21T18:52:39.982Z,43.00
2023-05-21T18:55:07.248Z,43.00
2023-05-21T18:57:34.815Z,43.10
2023-05-21T19:00:03.074Z,43.60
2023-05-21T19:02:30.164Z,44.20
2023-05-21T19:04:57.079Z,43.80
2023-05-21T19:07:24.047Z,43.70
2023-05-21T19:09:52.925Z,43.80
2023-05-21T19:12:19.885Z,43.80
2023-05-21T19:14:46.907Z,44.00
2023-05-21T19:17:14.141Z,44.20
2023-05-21T19:19:41.189Z,44.30
2023-05-21T19:22:08.420Z,44.40
2023-05-21T19:24:35.688Z,44.40
2023-05-21T19:27:02.631Z,44.40
2023-05-21T19:29:29.587Z,44.20
2023-05-21T19:31:57.456Z,44.20
2023-05-21T19:34:24.952Z,44.30
2023-05-21T19:36:53.830Z,44.60
2023-05-21T19:39:21.480Z,45.10
2023-05-21T19:41:48.692Z,45.50
2023-05-21T19:44:15.687Z,45.90
2023-05-21T19:46:42.810Z,46.40
2023-05-21T19:49:14.101Z,46.60
2023-05-21T19:51:41.051Z,47.00
2023-05-21T19:54:08.132Z,47.90
2023-05-21T19:56:35.446Z,49.00
2023-05-21T19:59:02.431Z,48.70
2023-05-21T20:01:33.118Z,48.60
2023-05-21T20:04:00.830Z,48.90
2023-05-21T20:06:28.485Z,49.10
2023-05-21T20:08:55.334Z,49.40
2023-05-21T20:11:22.276Z,49.30
2023-05-21T20:13:50.470Z,49.50
2023-05-21T20:16:20.847Z,49.80
2023-05-21T20:18:47.893Z,50.50
2023-05-21T20:21:18.708Z,50.60
2023-05-21T20:23:46.424Z,51.00
2023-05-21T20:26:14.590Z,51.50
2023-05-21T20:28:41.360Z,52.10
2023-05-21T20:31:08.546Z,52.60
2023-05-21T20:33:39.367Z,53.30
2023-05-21T20:36:07.616Z,53.60
2023-05-21T20:38:36.971Z,53.90
2023-05-21T20:41:05.071Z,54.80
2023-05-21T20:43:32.955Z,54.20
2023-05-21T20:46:01.820Z,54.20
2023-05-21T20:48:29.759Z,54.30
2023-05-21T20:51:04.663Z,54.60
2023-05-21T20:53:32.123Z,54.80
2023-05-21T20:56:01.657Z,54.60
2023-05-21T20:58:28.852Z,54.80
2023-05-21T21:00:56.014Z,54.80
2023-05-21T21:03:23.056Z,54.90
2023-05-21T21:05:50.022Z,55.30
2023-05-21T21:08:16.964Z,55.50
2023-05-21T21:10:46.969Z,55.60
2023-05-21T21:13:14.530Z,56.10
2023-05-21T21:15:42.632Z,56.20
2023-05-21T21:18:12.219Z,56.20
2023-05-21T21:20:39.938Z,56.10
2023-05-21T21:23:07.084Z,56.20
2023-05-21T21:25:34.031Z,56.30
2023-05-21T21:28:00.908Z,56.60
2023-05-21T21:30:27.899Z,56.80
2023-05-21T21:32:55.028Z,56.90
2023-05-21T21:35:22.000Z,56.90
2023-05-21T21:37:48.889Z,56.80
2023-05-21T21:40:16.003Z,56.70
2023-05-21T21:42:46.462Z,57.00
2023-05-21T21:45:13.602Z,57.10
2023-05-21T21:47:40.687Z,57.40
2023-05-21T21:50:08.667Z,57.50
2023-05-21T21:52:40.225Z,57.50
2023-05-21T21:55:11.955Z,57.50
2023-05-21T21:57:39.462Z,57.90
2023-05-21T22:00:11.557Z,58.20
2023-05-21T22:02:40.208Z,58.40
2023-05-21T22:05:09.849Z,58.40
2023-05-21T22:07:42.111Z,58.40
2023-05-21T22:10:09.922Z,58.70
2023-05-21T22:12:40.581Z,58.60
2023-05-21T22:15:08.702Z,58.70
2023-05-21T22:17:35.588Z,59.00
2023-05-21T22:20:02.802Z,59.20
2023-05-21T22:22:29.963Z,59.60
2023-05-21T22:24:56.918Z,59.90
2023-05-21T22:27:23.835Z,60.30
2023-05-21T22:29:50.981Z,60.60
2023-05-21T22:32:17.883Z,60.90
2023-05-21T22:34:44.837Z,61.20
2023-05-21T22:37:12.319Z,61.50
2023-05-21T22:39:39.334Z,61.50
2023-05-21T22:42:06.448Z,61.50
2023-05-21T22:44:33.506Z,62.00
2023-05-21T22:47:00.920Z,62.20
2023-05-21T22:49:28.082Z,62.10
2023-05-21T22:51:55.007Z,62.10
2023-05-21T22:54:22.560Z,61.80
2023-05-21T22:56:49.893Z,62.00
2023-05-21T22:59:16.866Z,62.00
2023-05-21T23:01:43.875Z,62.00
2023-05-21T23:04:10.848Z,61.90
2023-05-21T23:06:37.742Z,61.60
2023-05-21T23:09:04.993Z,61.80
2023-05-21T23:11:32.381Z,62.00
2023-05-21T23:13:59.366Z,62.40
2023-05-21T23:16:26.570Z,62.20
2023-05-21T23:18:54.457Z,62.70
2023-05-21T23:21:21.999Z,62.60
2023-05-21T23:23:48.955Z,62.40
2023-05-21T23:26:16.026Z,62.60
2023-05-21T23:28:43.131Z,62.50
2023-05-21T23:31:10.611Z,62.90
2023-05-21T23:33:37.465Z,63.00
2023-05-21T23:36:04.645Z,62.90
2023-05-21T23:38:31.533Z,63.10
2023-05-21T23:40:58.426Z,63.30
2023-05-21T23:43:25.493Z,63.50
2023-05-21T23:45:52.396Z,63.80
2023-05-21T23:48:19.378Z,63.70
2023-05-21T23:50:46.326Z,64.00
2023-05-21T23:53:13.176Z,64.40
2023-05-21T23:55:40.204Z,64.80
2023-05-21T23:58:07.066Z,64.90
